Time;durP1;ratioP1;P1;durP2;ratioP2;P2;SDS_P1;SDS_P2;PMS_P1;PMS_P2;Temp;Humidity;BMP_temperature;BMP_pressure;BME280_temperature;BME280_humidity;BME280_pressure;Samples;Min_cycle;Max_cycle;Signal;HPM_P1;HPM_P2
2022/10/28 00:02:02;;;;;;;29.45;12.77;;;;;;;;;;7398452;19;20023;-74
2022/10/28 00:04:27;;;;;;;29.92;13.05;;;;;;;;;;7397232;19;20015;-72
2022/10/28 00:06:53;;;;;;;23.73;12.32;;;;;;;;;;7400450;19;20015;-74
2022/10/28 00:09:18;;;;;;;22.98;12.98;;;;;;;;;;7391965;19;20062;-72
2022/10/28 00:11:43;;;;;;;21.58;12.68;;;;;;;;;;7391475;19;19994;-74
2022/10/28 00:14:10;;;;;;;29.33;12.85;;;;;;;;;;7392024;19;20005;-74
2022/10/28 00:16:36;;;;;;;24.48;12.73;;;;;;;;;;7393066;19;20025;-74
2022/10/28 00:19:03;;;;;;;23.73;12.38;;;;;;;;;;7396344;19;19995;-75
2022/10/28 00:21:32;;;;;;;30.45;13.32;;;;;;;;;;7391621;19;20002;-74
2022/10/28 00:23:58;;;;;;;23.10;11.90;;;;;;;;;;7391449;19;20002;-73
2022/10/28 00:26:29;;;;;;;22.45;12.50;;;;;;;;;;7392346;19;19998;-74
2022/10/28 00:28:56;;;;;;;24.38;12.82;;;;;;;;;;7392587;19;19999;-74
2022/10/28 00:31:24;;;;;;;21.20;12.00;;;;;;;;;;7389149;19;19999;-74
2022/10/28 00:33:49;;;;;;;20.42;12.65;;;;;;;;;;7391800;19;20002;-74
2022/10/28 00:36:19;;;;;;;22.90;12.43;;;;;;;;;;7391661;19;20074;-74
2022/10/28 00:38:46;;;;;;;21.15;12.68;;;;;;;;;;7391462;19;20379;-73
2022/10/28 00:41:14;;;;;;;19.88;12.20;;;;;;;;;;7388293;19;20002;-74
2022/10/28 00:43:51;;;;;;;21.88;11.95;;;;;;;;;;7391600;19;20002;-74
2022/10/28 00:46:26;;;;;;;21.90;11.52;;;;;;;;;;7392138;19;20002;-74
2022/10/28 00:48:57;;;;;;;20.67;12.00;;;;;;;;;;7392009;19;20347;-73
2022/10/28 00:51:24;;;;;;;21.65;12.38;;;;;;;;;;7388187;19;20014;-73
2022/10/28 00:53:51;;;;;;;23.98;12.38;;;;;;;;;;7390919;19;20402;-73
2022/10/28 00:56:18;;;;;;;25.15;12.35;;;;;;;;;;7391256;19;20396;-74
2022/10/28 00:58:45;;;;;;;20.20;11.63;;;;;;;;;;7390061;19;20013;-73
2022/10/28 01:01:11;;;;;;;24.65;12.00;;;;;;;;;;7389859;19;20441;-74
2022/10/28 01:03:36;;;;;;;28.83;13.02;;;;;;;;;;7390778;19;20278;-73
2022/10/28 01:06:03;;;;;;;27.63;13.43;;;;;;;;;;7390990;19;20010;-74
2022/10/28 01:08:28;;;;;;;24.75;13.82;;;;;;;;;;7391146;19;20002;-74
2022/10/28 01:11:02;;;;;;;24.35;14.05;;;;;;;;;;7389609;19;20003;-74
2022/10/28 01:13:45;;;;;;;26.55;13.73;;;;;;;;;;7391906;19;20011;-74
2022/10/28 01:16:13;;;;;;;22.30;12.75;;;;;;;;;;7390950;19;20007;-73
2022/10/28 01:19:10;;;;;;;25.60;13.90;;;;;;;;;;7391197;19;19999;-73
2022/10/28 01:22:04;;;;;;;25.90;13.60;;;;;;;;;;7389087;19;19999;-75
2022/10/28 01:24:52;;;;;;;28.02;13.43;;;;;;;;;;7389175;19;20369;-74
2022/10/28 01:27:48;;;;;;;24.75;12.77;;;;;;;;;;7389001;19;20386;-74
2022/10/28 01:30:22;;;;;;;28.98;14.38;;;;;;;;;;7389280;19;20476;-74
2022/10/28 01:33:38;;;;;;;29.42;14.60;;;;;;;;;;7389351;19;20059;-75
2022/10/28 01:36:11;;;;;;;26.77;14.23;;;;;;;;;;7387479;19;20070;-73
2022/10/28 01:38:51;;;;;;;29.83;13.68;;;;;;;;;;7390295;19;19998;-74
2022/10/28 01:41:52;;;;;;;24.13;13.23;;;;;;;;;;7389280;19;20007;-74
2022/10/28 01:44:28;;;;;;;34.97;14.77;;;;;;;;;;7389083;19;20062;-74
2022/10/28 01:46:58;;;;;;;24.15;13.68;;;;;;;;;;7390354;19;20016;-75
2022/10/28 01:49:33;;;;;;;22.92;12.68;;;;;;;;;;7387964;19;20006;-75
2022/10/28 01:52:03;;;;;;;23.13;13.52;;;;;;;;;;7388735;19;20479;-74
2022/10/28 01:54:32;;;;;;;26.92;12.88;;;;;;;;;;7386323;19;20027;-74
2022/10/28 01:57:01;;;;;;;24.17;13.68;;;;;;;;;;7389958;19;20312;-73
2022/10/28 01:59:28;;;;;;;23.17;13.27;;;;;;;;;;7389223;19;20002;-74
2022/10/28 02:01:54;;;;;;;24.02;13.13;;;;;;;;;;7388446;19;19999;-74
2022/10/28 02:04:19;;;;;;;22.33;12.88;;;;;;;;;;7387821;19;20371;-73
2022/10/28 02:06:48;;;;;;;22.50;11.98;;;;;;;;;;7388827;19;20010;-74
2022/10/28 02:09:25;;;;;;;24.48;12.40;;;;;;;;;;7387052;19;20002;-74
2022/10/28 02:12:12;;;;;;;26.88;13.18;;;;;;;;;;7390410;19;20038;-74
2022/10/28 02:15:08;;;;;;;25.10;12.00;;;;;;;;;;7387638;19;20013;-74
2022/10/28 02:17:55;;;;;;;21.77;11.45;;;;;;;;;;7388245;19;20480;-73
2022/10/28 02:20:47;;;;;;;20.40;11.75;;;;;;;;;;7388394;19;20007;-74
2022/10/28 02:23:41;;;;;;;19.80;11.07;;;;;;;;;;7385645;19;20030;-74
2022/10/28 02:26:18;;;;;;;21.83;11.32;;;;;;;;;;7387123;19;20017;-72
2022/10/28 02:28:59;;;;;;;18.48;11.25;;;;;;;;;;7388524;19;20003;-73
2022/10/28 02:31:39;;;;;;;22.38;11.23;;;;;;;;;;7383570;19;20002;-74
2022/10/28 02:34:10;;;;;;;19.33;10.88;;;;;;;;;;7386609;19;20441;-73
2022/10/28 02:36:41;;;;;;;21.98;11.35;;;;;;;;;;7387933;19;20006;-74
2022/10/28 02:39:06;;;;;;;24.73;11.73;;;;;;;;;;7387902;19;20006;-73
2022/10/28 02:41:49;;;;;;;24.25;11.48;;;;;;;;;;7387368;19;20023;-74
2022/10/28 02:44:24;;;;;;;22.88;11.63;;;;;;;;;;7387223;19;20006;-74
2022/10/28 02:46:51;;;;;;;21.17;11.82;;;;;;;;;;7386969;19;20002;-74
2022/10/28 02:49:16;;;;;;;26.58;12.18;;;;;;;;;;7386307;19;20115;-74
2022/10/28 02:51:53;;;;;;;21.08;10.68;;;;;;;;;;7385786;19;20026;-73
2022/10/28 02:54:27;;;;;;;23.52;11.40;;;;;;;;;;7386875;19;20007;-74
2022/10/28 02:57:02;;;;;;;26.08;12.43;;;;;;;;;;7388049;19;20003;-73
2022/10/28 02:59:28;;;;;;;17.40;10.32;;;;;;;;;;7387984;19;19999;-73
2022/10/28 03:01:54;;;;;;;23.23;11.48;;;;;;;;;;7387408;19;20493;-74
2022/10/28 03:04:19;;;;;;;19.73;10.85;;;;;;;;;;7386348;19;20066;-74
2022/10/28 03:06:45;;;;;;;22.52;11.85;;;;;;;;;;7388071;19;20013;-74
2022/10/28 03:09:10;;;;;;;24.95;12.38;;;;;;;;;;7388093;19;20009;-73
2022/10/28 03:11:35;;;;;;;21.70;11.50;;;;;;;;;;7385036;19;20488;-72
2022/10/28 03:14:01;;;;;;;21.17;10.82;;;;;;;;;;7387091;19;20003;-73
2022/10/28 03:16:26;;;;;;;20.55;10.75;;;;;;;;;;7386382;19;19999;-73
2022/10/28 03:18:52;;;;;;;21.98;10.15;;;;;;;;;;7387068;19;20002;-74
2022/10/28 03:21:18;;;;;;;18.13;9.98;;;;;;;;;;7386180;19;20071;-74
2022/10/28 03:23:43;;;;;;;21.08;9.55;;;;;;;;;;7386399;19;20024;-74
2022/10/28 03:26:08;;;;;;;28.25;10.32;;;;;;;;;;7386629;19;20002;-74
2022/10/28 03:28:34;;;;;;;21.23;10.32;;;;;;;;;;7386717;19;20003;-73
2022/10/28 03:30:59;;;;;;;22.90;11.27;;;;;;;;;;7384865;19;19999;-73
2022/10/28 03:33:24;;;;;;;22.33;10.68;;;;;;;;;;7385833;19;20384;-74
2022/10/28 03:35:49;;;;;;;18.02;10.25;;;;;;;;;;7386426;19;20350;-74
2022/10/28 03:38:15;;;;;;;19.45;10.05;;;;;;;;;;7388180;19;20003;-74
2022/10/28 03:40:40;;;;;;;22.15;9.77;;;;;;;;;;7384710;19;20017;-74
2022/10/28 03:43:05;;;;;;;25.58;10.68;;;;;;;;;;7388361;19;20031;-73
2022/10/28 03:45:31;;;;;;;22.58;9.43;;;;;;;;;;7393991;19;20293;-73
2022/10/28 03:47:56;;;;;;;26.67;9.82;;;;;;;;;;7393337;19;19995;-73
2022/10/28 03:50:22;;;;;;;18.83;9.98;;;;;;;;;;7392736;19;20002;-73
2022/10/28 03:52:47;;;;;;;21.38;10.65;;;;;;;;;;7392907;19;19999;-74
2022/10/28 03:55:13;;;;;;;19.83;9.88;;;;;;;;;;7390763;19;20019;-74
2022/10/28 03:57:38;;;;;;;18.90;9.32;;;;;;;;;;7393440;19;20020;-74
2022/10/28 04:00:05;;;;;;;20.25;9.35;;;;;;;;;;7394895;19;20206;-74
2022/10/28 04:02:30;;;;;;;21.38;10.07;;;;;;;;;;7392697;19;20007;-74
2022/10/28 04:04:55;;;;;;;17.55;9.27;;;;;;;;;;7390839;19;20006;-73
2022/10/28 04:07:21;;;;;;;22.25;9.15;;;;;;;;;;7392821;19;20009;-74
2022/10/28 04:09:50;;;;;;;19.60;9.98;;;;;;;;;;7392065;19;20031;-73
2022/10/28 04:12:15;;;;;;;15.98;9.15;;;;;;;;;;7392210;19;19998;-74
2022/10/28 04:14:41;;;;;;;21.92;9.60;;;;;;;;;;7393289;19;20077;-73
2022/10/28 04:17:06;;;;;;;25.05;10.23;;;;;;;;;;7392394;19;20001;-73
2022/10/28 04:19:31;;;;;;;20.35;9.43;;;;;;;;;;7393752;19;20099;-73
2022/10/28 04:21:56;;;;;;;19.00;9.38;;;;;;;;;;7389941;19;20010;-73
2022/10/28 04:24:22;;;;;;;16.27;9.07;;;;;;;;;;7390672;19;20013;-74
2022/10/28 04:26:47;;;;;;;16.80;8.45;;;;;;;;;;7391942;19;20494;-74
2022/10/28 04:29:12;;;;;;;20.80;9.32;;;;;;;;;;7392307;19;20001;-74
2022/10/28 04:31:38;;;;;;;16.98;8.90;;;;;;;;;;7388987;19;20002;-74
2022/10/28 04:34:03;;;;;;;21.58;9.43;;;;;;;;;;7389555;19;20011;-74
2022/10/28 04:36:28;;;;;;;17.40;9.25;;;;;;;;;;7392213;19;20467;-74
2022/10/28 04:38:53;;;;;;;17.95;9.05;;;;;;;;;;7392255;19;20003;-75
2022/10/28 04:41:19;;;;;;;17.30;9.43;;;;;;;;;;7389846;19;19999;-74
2022/10/28 04:43:44;;;;;;;24.20;9.05;;;;;;;;;;7391112;19;20069;-75
2022/10/28 04:46:09;;;;;;;16.58;8.88;;;;;;;;;;7393552;19;19998;-74
2022/10/28 04:48:35;;;;;;;24.40;9.07;;;;;;;;;;7392108;19;20015;-74
2022/10/28 04:51:01;;;;;;;20.08;9.00;;;;;;;;;;7390390;19;19994;-74
2022/10/28 04:53:26;;;;;;;16.58;8.63;;;;;;;;;;7391309;19;20006;-74
2022/10/28 04:55:56;;;;;;;15.60;8.20;;;;;;;;;;7390418;19;20031;-74
2022/10/28 04:58:22;;;;;;;21.75;8.65;;;;;;;;;;7392250;19;19998;-74
2022/10/28 05:00:47;;;;;;;20.50;9.27;;;;;;;;;;7392511;19;20005;-73
2022/10/28 05:03:12;;;;;;;24.42;9.48;;;;;;;;;;7391446;19;20061;-74
2022/10/28 05:05:39;;;;;;;21.40;8.82;;;;;;;;;;7390178;19;20453;-74
2022/10/28 05:08:05;;;;;;;16.27;9.20;;;;;;;;;;7391794;19;19999;-74
2022/10/28 05:10:30;;;;;;;19.02;9.13;;;;;;;;;;7392326;19;20483;-73
2022/10/28 05:12:56;;;;;;;19.48;9.20;;;;;;;;;;7395327;19;20001;-74
2022/10/28 05:15:21;;;;;;;15.50;8.77;;;;;;;;;;7392904;19;19998;-74
2022/10/28 05:17:47;;;;;;;24.13;8.85;;;;;;;;;;7391439;19;20005;-74
2022/10/28 05:20:15;;;;;;;19.30;8.35;;;;;;;;;;7390951;19;20393;-71
2022/10/28 05:22:52;;;;;;;43.63;28.25;;;;;;;;;;7389122;19;20026;-73
2022/10/28 05:25:18;;;;;;;33.05;16.63;;;;;;;;;;7388107;19;20358;-74
2022/10/28 05:27:43;;;;;;;23.70;9.52;;;;;;;;;;7393395;19;20009;-73
2022/10/28 05:30:09;;;;;;;18.08;8.40;;;;;;;;;;7392544;19;20480;-72
2022/10/28 05:32:35;;;;;;;14.50;7.43;;;;;;;;;;7392984;19;19999;-74
2022/10/28 05:35:00;;;;;;;20.30;7.85;;;;;;;;;;7369058;19;20066;-74
2022/10/28 05:37:25;;;;;;;15.50;8.55;;;;;;;;;;7390634;19;19999;-73
2022/10/28 05:39:51;;;;;;;16.20;8.52;;;;;;;;;;7391609;19;20502;-73
2022/10/28 05:42:16;;;;;;;24.02;8.68;;;;;;;;;;7392099;19;19994;-76
2022/10/28 05:44:41;;;;;;;15.00;8.68;;;;;;;;;;7390874;19;20015;-76
2022/10/28 05:47:07;;;;;;;21.05;9.32;;;;;;;;;;7392727;19;20393;-76
2022/10/28 05:49:32;;;;;;;16.70;9.18;;;;;;;;;;7393225;19;19990;-76
2022/10/28 05:51:57;;;;;;;18.55;9.18;;;;;;;;;;7392574;19;19995;-76
2022/10/28 05:54:23;;;;;;;16.65;8.52;;;;;;;;;;7391881;19;20016;-76
2022/10/28 05:56:48;;;;;;;17.00;9.15;;;;;;;;;;7393563;19;20109;-78
2022/10/28 05:59:13;;;;;;;20.40;9.18;;;;;;;;;;7393582;19;20011;-76
2022/10/28 06:01:39;;;;;;;17.42;9.07;;;;;;;;;;7392478;19;20036;-75
2022/10/28 06:04:05;;;;;;;18.05;8.90;;;;;;;;;;7390857;19;20002;-76
2022/10/28 06:06:31;;;;;;;13.98;9.38;;;;;;;;;;7390822;19;20346;-77
2022/10/28 06:08:56;;;;;;;15.35;8.98;;;;;;;;;;7390766;19;19995;-77
2022/10/28 06:11:22;;;;;;;15.52;8.18;;;;;;;;;;7389770;19;20017;-77
2022/10/28 06:13:47;;;;;;;16.88;9.23;;;;;;;;;;7388711;19;20101;-77
2022/10/28 06:16:13;;;;;;;17.23;8.57;;;;;;;;;;7401415;19;19994;-77
2022/10/28 06:18:38;;;;;;;22.17;10.07;;;;;;;;;;7412866;19;20417;-78
2022/10/28 06:21:04;;;;;;;25.95;14.68;;;;;;;;;;7409210;19;19995;-77
2022/10/28 06:23:29;;;;;;;20.30;11.38;;;;;;;;;;7391448;19;20002;-77
2022/10/28 06:25:59;;;;;;;22.92;13.60;;;;;;;;;;7388877;19;20000;-77
2022/10/28 06:28:25;;;;;;;17.85;10.38;;;;;;;;;;7396772;19;20023;-75
2022/10/28 06:30:50;;;;;;;17.80;9.50;;;;;;;;;;7392270;19;19990;-77
2022/10/28 06:33:16;;;;;;;15.82;8.85;;;;;;;;;;7392081;19;19995;-77
2022/10/28 06:35:42;;;;;;;13.75;8.63;;;;;;;;;;7389561;19;19998;-77
2022/10/28 06:38:07;;;;;;;15.85;7.70;;;;;;;;;;7388748;19;20006;-77
2022/10/28 06:40:32;;;;;;;18.15;8.55;;;;;;;;;;7392541;19;20062;-77
2022/10/28 06:42:58;;;;;;;14.98;8.98;;;;;;;;;;7391774;19;19994;-77
2022/10/28 06:45:23;;;;;;;13.82;8.13;;;;;;;;;;7389164;19;20015;-77
2022/10/28 06:47:48;;;;;;;17.80;8.68;;;;;;;;;;7391316;19;20047;-77
2022/10/28 06:50:23;;;;;;;14.40;8.25;;;;;;;;;;7389965;19;19995;-77
2022/10/28 06:52:48;;;;;;;16.05;8.75;;;;;;;;;;7387462;19;20013;-77
2022/10/28 06:55:13;;;;;;;18.13;9.10;;;;;;;;;;7384184;19;20002;-77
2022/10/28 06:57:39;;;;;;;16.80;9.18;;;;;;;;;;7387441;19;19994;-78
2022/10/28 07:00:05;;;;;;;20.17;10.82;;;;;;;;;;7391124;19;20001;-77
2022/10/28 07:02:30;;;;;;;18.98;9.63;;;;;;;;;;7382651;19;20009;-76
2022/10/28 07:04:55;;;;;;;22.67;13.02;;;;;;;;;;7389189;19;19991;-76
2022/10/28 07:07:21;;;;;;;20.10;10.40;;;;;;;;;;7388507;19;20002;-79
2022/10/28 07:09:46;;;;;;;22.63;10.85;;;;;;;;;;7388625;19;20047;-76
2022/10/28 07:12:11;;;;;;;14.82;8.98;;;;;;;;;;7387836;19;20081;-76
2022/10/28 07:14:37;;;;;;;15.10;9.20;;;;;;;;;;7390108;19;20058;-77
2022/10/28 07:17:02;;;;;;;21.50;9.85;;;;;;;;;;7391324;19;20007;-76
2022/10/28 07:19:27;;;;;;;19.17;9.90;;;;;;;;;;7395672;19;20019;-74
2022/10/28 07:21:53;;;;;;;21.35;9.85;;;;;;;;;;7397655;19;19994;-76
2022/10/28 07:24:18;;;;;;;22.27;9.82;;;;;;;;;;7395220;19;20006;-76
2022/10/28 07:26:43;;;;;;;16.33;9.07;;;;;;;;;;7396423;19;20102;-74
2022/10/28 07:29:08;;;;;;;17.75;8.93;;;;;;;;;;7396611;19;19988;-78
2022/10/28 07:31:34;;;;;;;16.23;9.13;;;;;;;;;;7395642;19;19991;-77
2022/10/28 07:33:59;;;;;;;17.50;9.23;;;;;;;;;;7397788;19;20005;-76
2022/10/28 07:36:24;;;;;;;19.58;8.38;;;;;;;;;;7396952;19;19991;-78
2022/10/28 07:38:51;;;;;;;19.65;8.82;;;;;;;;;;7375185;19;20005;-78
2022/10/28 07:41:19;;;;;;;25.65;14.65;;;;;;;;;;7396433;19;19999;-79
2022/10/28 07:43:45;;;;;;;14.65;8.43;;;;;;;;;;7396809;19;20009;-75
2022/10/28 07:46:10;;;;;;;20.38;8.10;;;;;;;;;;7394105;19;20328;-79
2022/10/28 07:48:36;;;;;;;17.60;8.35;;;;;;;;;;7395713;19;19998;-76
2022/10/28 07:51:03;;;;;;;16.30;7.85;;;;;;;;;;7393773;19;19999;-79
2022/10/28 07:53:29;;;;;;;16.05;8.10;;;;;;;;;;7397334;19;19999;-76
2022/10/28 07:55:57;;;;;;;13.55;7.65;;;;;;;;;;7396087;19;20071;-77
2022/10/28 07:58:22;;;;;;;12.02;7.95;;;;;;;;;;7396554;19;20125;-78
2022/10/28 08:00:47;;;;;;;12.57;7.32;;;;;;;;;;7396133;19;20024;-77
2022/10/28 08:03:13;;;;;;;13.48;7.40;;;;;;;;;;7395307;19;20460;-76
2022/10/28 08:05:38;;;;;;;12.43;6.53;;;;;;;;;;7392568;19;20391;-76
2022/10/28 08:08:03;;;;;;;16.80;7.50;;;;;;;;;;7391081;19;19998;-78
2022/10/28 08:10:29;;;;;;;19.02;7.38;;;;;;;;;;7392132;19;20295;-77
2022/10/28 08:12:57;;;;;;;14.52;7.53;;;;;;;;;;7394836;19;19998;-76
2022/10/28 08:15:23;;;;;;;12.07;6.78;;;;;;;;;;7392430;19;20022;-79
2022/10/28 08:17:52;;;;;;;10.32;6.80;;;;;;;;;;7394745;19;20081;-78
2022/10/28 08:20:17;;;;;;;21.52;7.68;;;;;;;;;;7396335;19;20028;-77
2022/10/28 08:22:43;;;;;;;16.50;7.13;;;;;;;;;;7395319;19;20037;-77
2022/10/28 08:25:08;;;;;;;14.75;7.28;;;;;;;;;;7392512;19;20018;-76
2022/10/28 08:27:34;;;;;;;12.98;7.38;;;;;;;;;;7393190;19;20012;-76
2022/10/28 08:29:59;;;;;;;13.07;7.03;;;;;;;;;;7391446;19;20014;-76
2022/10/28 08:32:27;;;;;;;13.60;7.80;;;;;;;;;;7393740;19;20017;-77
2022/10/28 08:34:53;;;;;;;12.65;7.30;;;;;;;;;;7392414;19;20006;-79
2022/10/28 08:37:18;;;;;;;15.75;7.35;;;;;;;;;;7396632;19;20365;-80
2022/10/28 08:39:43;;;;;;;18.17;6.68;;;;;;;;;;7393178;19;20389;-79
2022/10/28 08:42:42;;;;;;;14.00;7.40;;;;;;;;;;7390470;19;20081;-79
2022/10/28 08:45:32;;;;;;;12.55;6.70;;;;;;;;;;7387678;19;20459;-80
2022/10/28 08:48:30;;;;;;;16.43;7.50;;;;;;;;;;7394614;19;20002;-80
2022/10/28 08:51:05;;;;;;;13.27;7.32;;;;;;;;;;7396005;19;20556;-80
2022/10/28 08:53:39;;;;;;;16.75;8.10;;;;;;;;;;7393175;19;19998;-79
2022/10/28 08:56:13;;;;;;;18.17;7.75;;;;;;;;;;7393018;19;20003;-76
2022/10/28 08:58:41;;;;;;;13.30;7.03;;;;;;;;;;7393954;19;20006;-75
2022/10/28 09:01:15;;;;;;;11.75;6.40;;;;;;;;;;7394620;19;20079;-76
2022/10/28 09:03:43;;;;;;;13.23;7.10;;;;;;;;;;7393149;19;20003;-76
2022/10/28 09:06:09;;;;;;;22.02;6.82;;;;;;;;;;7393192;19;20479;-77
2022/10/28 09:08:40;;;;;;;13.27;6.60;;;;;;;;;;7396063;19;20023;-74
2022/10/28 09:11:29;;;;;;;17.00;6.40;;;;;;;;;;7392484;19;20009;-75
2022/10/28 09:14:11;;;;;;;13.90;6.03;;;;;;;;;;7391482;19;20007;-76
2022/10/28 09:16:55;;;;;;;9.98;5.88;;;;;;;;;;7390517;19;19998;-77
2022/10/28 09:19:46;;;;;;;18.65;6.00;;;;;;;;;;7387430;19;20353;-76
2022/10/28 09:22:22;;;;;;;14.52;5.32;;;;;;;;;;7390332;19;20117;-79
2022/10/28 09:25:02;;;;;;;10.75;5.85;;;;;;;;;;7390085;19;20472;-80
2022/10/28 09:27:39;;;;;;;12.77;6.00;;;;;;;;;;7389052;19;20019;-78
2022/10/28 09:30:38;;;;;;;12.73;5.00;;;;;;;;;;7392539;19;20003;-83
2022/10/28 09:33:31;;;;;;;10.73;5.05;;;;;;;;;;7392065;19;20507;-76
2022/10/28 09:35:57;;;;;;;11.25;4.80;;;;;;;;;;7395803;19;20202;-76
2022/10/28 09:38:38;;;;;;;10.80;4.85;;;;;;;;;;7394753;19;20487;-77
2022/10/28 09:41:07;;;;;;;11.93;5.15;;;;;;;;;;7389700;19;19990;-77
2022/10/28 09:43:34;;;;;;;20.50;5.45;;;;;;;;;;7392730;19;20030;-77
2022/10/28 09:46:10;;;;;;;11.65;4.72;;;;;;;;;;7394549;19;20008;-76
2022/10/28 09:48:48;;;;;;;16.60;4.90;;;;;;;;;;7393889;19;20003;-76
2022/10/28 09:51:28;;;;;;;12.02;4.57;;;;;;;;;;7392262;19;20452;-77
2022/10/28 09:53:58;;;;;;;11.45;5.43;;;;;;;;;;7393182;19;20017;-77
2022/10/28 09:56:26;;;;;;;9.52;4.43;;;;;;;;;;7394008;19;20002;-74
2022/10/28 09:58:53;;;;;;;11.68;5.32;;;;;;;;;;7394730;19;20038;-76
2022/10/28 10:01:19;;;;;;;13.07;4.53;;;;;;;;;;7389971;19;20667;-77
2022/10/28 10:03:48;;;;;;;9.65;4.80;;;;;;;;;;7388628;19;19998;-78
2022/10/28 10:06:48;;;;;;;10.52;4.20;;;;;;;;;;7392358;19;20037;-82
2022/10/28 10:09:22;;;;;;;13.17;4.77;;;;;;;;;;7386542;19;19999;-87
2022/10/28 10:11:50;;;;;;;11.02;5.30;;;;;;;;;;7388074;19;20005;-80
2022/10/28 10:14:20;;;;;;;10.25;4.63;;;;;;;;;;7392013;19;20084;-81
2022/10/28 10:17:08;;;;;;;;;;;;;;;;;;7391976;19;20368;-81
2022/10/28 10:19:56;;;;;;;9.52;4.53;;;;;;;;;;7393533;19;19926;-82
2022/10/28 10:22:30;;;;;;;12.13;5.28;;;;;;;;;;7393022;19;20002;-82
2022/10/28 10:24:55;;;;;;;9.88;4.32;;;;;;;;;;7393557;19;20006;-83
2022/10/28 10:27:20;;;;;;;10.48;4.40;;;;;;;;;;7391889;19;20010;-80
2022/10/28 10:29:51;;;;;;;8.10;4.47;;;;;;;;;;7392972;19;20498;-79
2022/10/28 10:35:22;;;;;;;12.00;4.57;;;;;;;;;;7401916;19;20052;-82
2022/10/28 10:37:47;;;;;;;18.67;9.07;;;;;;;;;;7411452;19;19999;-81
2022/10/28 10:40:31;;;;;;;11.65;5.50;;;;;;;;;;7411314;19;20062;-81
2022/10/28 10:43:35;;;;;;;8.93;4.53;;;;;;;;;;7390804;19;19998;-80
2022/10/28 10:46:11;;;;;;;9.38;4.60;;;;;;;;;;7392730;19;20005;-83
2022/10/28 10:48:37;;;;;;;7.45;3.80;;;;;;;;;;7391653;19;20410;-81
2022/10/28 10:51:16;;;;;;;9.80;3.83;;;;;;;;;;7389053;19;20011;-81
2022/10/28 10:53:47;;;;;;;10.88;4.00;;;;;;;;;;7389237;19;20022;-81
2022/10/28 10:56:23;;;;;;;11.75;3.78;;;;;;;;;;7390356;19;20008;-82
2022/10/28 10:58:51;;;;;;;7.82;3.70;;;;;;;;;;7391674;19;20408;-81
2022/10/28 11:01:27;;;;;;;13.00;3.35;;;;;;;;;;7388191;19;20003;-81
2022/10/28 11:03:57;;;;;;;12.55;3.75;;;;;;;;;;7390614;19;20006;-81
2022/10/28 11:06:27;;;;;;;6.50;3.22;;;;;;;;;;7391711;19;20002;-80
2022/10/28 11:08:57;;;;;;;9.60;3.75;;;;;;;;;;7392878;19;20069;-80
2022/10/28 11:11:31;;;;;;;7.53;3.35;;;;;;;;;;7388474;19;20009;-80
2022/10/28 11:14:08;;;;;;;12.88;3.90;;;;;;;;;;7390574;19;19998;-80
2022/10/28 11:16:50;;;;;;;15.50;4.53;;;;;;;;;;7392394;19;20005;-80
2022/10/28 11:19:23;;;;;;;11.48;3.40;;;;;;;;;;7390477;19;20020;-79
2022/10/28 11:22:11;;;;;;;8.30;3.20;;;;;;;;;;7388439;19;20470;-80
2022/10/28 11:24:59;;;;;;;11.00;3.13;;;;;;;;;;7390754;19;19999;-78
2022/10/28 11:27:54;;;;;;;7.15;3.85;;;;;;;;;;7390226;19;19987;-79
2022/10/28 11:30:26;;;;;;;16.08;3.83;;;;;;;;;;7391022;19;20002;-77
2022/10/28 11:33:16;;;;;;;13.90;4.25;;;;;;;;;;7390653;19;20273;-80
2022/10/28 11:35:48;;;;;;;10.40;3.30;;;;;;;;;;7387646;19;20009;-79
2022/10/28 11:38:29;;;;;;;10.65;3.67;;;;;;;;;;7389665;19;20002;-79
2022/10/28 11:41:08;;;;;;;9.25;3.40;;;;;;;;;;7391493;19;19991;-79
2022/10/28 11:43:54;;;;;;;8.07;3.30;;;;;;;;;;7389539;19;20088;-79
2022/10/28 11:46:23;;;;;;;11.25;3.40;;;;;;;;;;7388285;19;20022;-72
2022/10/28 11:49:30;;;;;;;9.35;3.13;;;;;;;;;;7389149;19;20006;-72
2022/10/28 11:52:18;;;;;;;10.15;3.72;;;;;;;;;;7386439;19;20003;-72
2022/10/28 11:54:57;;;;;;;9.95;3.38;;;;;;;;;;7388741;19;20351;-71
2022/10/28 11:57:35;;;;;;;9.85;3.90;;;;;;;;;;7388301;19;19995;-71
2022/10/28 12:00:22;;;;;;;11.43;3.72;;;;;;;;;;7387156;19;20018;-72
2022/10/28 12:03:01;;;;;;;10.30;3.25;;;;;;;;;;7388354;19;20014;-71
2022/10/28 12:05:51;;;;;;;11.43;4.03;;;;;;;;;;7389242;19;19998;-71
2022/10/28 12:08:33;;;;;;;13.23;3.85;;;;;;;;;;7397143;19;20006;-71
2022/10/28 12:11:10;;;;;;;8.77;3.35;;;;;;;;;;7395532;19;20539;-71
2022/10/28 12:13:43;;;;;;;9.88;4.00;;;;;;;;;;7370867;19;20030;-71
2022/10/28 12:16:21;;;;;;;12.50;3.47;;;;;;;;;;7393366;19;20003;-71
2022/10/28 12:18:51;;;;;;;9.32;4.10;;;;;;;;;;7395086;19;20005;-71
2022/10/28 12:21:35;;;;;;;15.82;3.70;;;;;;;;;;7394295;19;20816;-71
2022/10/28 12:24:03;;;;;;;9.73;3.53;;;;;;;;;;7395251;19;19998;-71
2022/10/28 12:26:38;;;;;;;7.93;3.72;;;;;;;;;;7393918;19;20030;-71
2022/10/28 12:29:13;;;;;;;8.43;3.55;;;;;;;;;;7391646;19;20103;-71
2022/10/28 12:31:44;;;;;;;9.48;3.28;;;;;;;;;;7391440;19;20003;-71
2022/10/28 12:34:12;;;;;;;;;;;;;;;;;;7394998;19;20005;-71
2022/10/28 12:37:01;;;;;;;9.88;3.17;;;;;;;;;;7392891;19;19926;-72
2022/10/28 12:39:46;;;;;;;9.38;3.30;;;;;;;;;;7393489;19;20002;-72
2022/10/28 12:42:24;;;;;;;9.98;3.75;;;;;;;;;;7392539;19;19994;-70
2022/10/28 12:44:52;;;;;;;11.43;3.53;;;;;;;;;;7394746;19;19998;-72
2022/10/28 12:47:20;;;;;;;13.43;4.05;;;;;;;;;;7393030;19;20346;-70
2022/10/28 12:50:07;;;;;;;10.00;3.50;;;;;;;;;;7393283;19;20002;-70
2022/10/28 12:53:00;;;;;;;10.05;3.90;;;;;;;;;;7394182;19;20006;-71
2022/10/28 12:55:44;;;;;;;9.80;3.88;;;;;;;;;;7392215;19;19998;-71
2022/10/28 12:58:18;;;;;;;9.80;4.10;;;;;;;;;;7392813;19;19999;-72
2022/10/28 13:00:54;;;;;;;16.85;3.97;;;;;;;;;;7394600;19;19999;-72
2022/10/28 13:03:19;;;;;;;12.68;4.28;;;;;;;;;;7390847;19;19998;-72
2022/10/28 13:05:54;;;;;;;9.15;3.45;;;;;;;;;;7390756;19;20016;-73
2022/10/28 13:08:37;;;;;;;11.80;3.80;;;;;;;;;;7394102;19;20002;-71
2022/10/28 13:11:18;;;;;;;10.18;4.03;;;;;;;;;;7390486;19;20015;-71
2022/10/28 13:14:11;;;;;;;12.15;3.55;;;;;;;;;;7391206;19;20065;-71
2022/10/28 13:17:14;;;;;;;9.63;3.92;;;;;;;;;;7390793;19;20007;-71
2022/10/28 13:20:10;;;;;;;8.73;3.85;;;;;;;;;;7392582;19;20344;-71
2022/10/28 13:22:52;;;;;;;9.18;4.10;;;;;;;;;;7393854;19;19998;-70
2022/10/28 13:25:20;;;;;;;15.63;3.72;;;;;;;;;;7393414;19;20086;-70
2022/10/28 13:27:47;;;;;;;10.93;3.50;;;;;;;;;;7392030;19;20580;-71
2022/10/28 13:30:18;;;;;;;12.98;3.88;;;;;;;;;;7393970;19;20002;-70
2022/10/28 13:32:44;;;;;;;15.52;8.30;;;;;;;;;;7393077;19;19994;-72
2022/10/28 13:35:25;;;;;;;16.45;3.80;;;;;;;;;;7388360;19;20082;-72
2022/10/28 13:37:52;;;;;;;12.32;3.65;;;;;;;;;;7392980;19;19998;-71
2022/10/28 13:40:30;;;;;;;11.38;3.58;;;;;;;;;;7393419;19;19991;-71
2022/10/28 13:42:56;;;;;;;10.23;3.63;;;;;;;;;;7393160;19;20012;-72
2022/10/28 13:45:50;;;;;;;9.75;3.33;;;;;;;;;;7390086;19;20002;-71
2022/10/28 13:48:27;;;;;;;10.27;3.70;;;;;;;;;;7392805;19;19998;-71
2022/10/28 13:51:12;;;;;;;11.70;3.80;;;;;;;;;;7391476;19;20023;-71
2022/10/28 13:53:44;;;;;;;10.82;3.60;;;;;;;;;;7391030;19;20020;-71
2022/10/28 13:56:39;;;;;;;10.90;3.75;;;;;;;;;;7391285;19;20006;-71
2022/10/28 13:59:13;;;;;;;12.80;4.13;;;;;;;;;;7387285;19;20428;-71
2022/10/28 14:02:01;;;;;;;11.68;4.00;;;;;;;;;;7390677;19;19999;-70
2022/10/28 14:04:38;;;;;;;10.18;3.80;;;;;;;;;;7392817;19;20009;-70
2022/10/28 14:07:09;;;;;;;15.35;4.47;;;;;;;;;;7392684;19;20336;-71
2022/10/28 14:09:36;;;;;;;11.00;3.90;;;;;;;;;;7388707;19;20074;-71
2022/10/28 14:12:11;;;;;;;13.18;3.55;;;;;;;;;;7387852;19;19993;-71
2022/10/28 14:14:37;;;;;;;11.05;3.40;;;;;;;;;;7391662;19;20338;-72
2022/10/28 14:17:03;;;;;;;11.15;3.90;;;;;;;;;;7388771;19;19997;-72
2022/10/28 14:19:28;;;;;;;12.50;4.00;;;;;;;;;;7388213;19;20013;-72
2022/10/28 14:22:07;;;;;;;10.43;3.70;;;;;;;;;;7390025;19;20464;-71
2022/10/28 14:24:33;;;;;;;10.00;3.45;;;;;;;;;;7391442;19;20010;-72
2022/10/28 14:27:05;;;;;;;11.90;3.88;;;;;;;;;;7392122;19;19994;-71
2022/10/28 14:29:41;;;;;;;12.20;4.30;;;;;;;;;;7387465;19;19994;-72
2022/10/28 14:32:31;;;;;;;9.80;3.72;;;;;;;;;;7388334;19;19995;-72
2022/10/28 14:35:09;;;;;;;9.23;3.40;;;;;;;;;;7392152;19;19999;-71
2022/10/28 14:38:02;;;;;;;15.43;3.92;;;;;;;;;;7389423;19;19998;-71
2022/10/28 14:40:50;;;;;;;9.60;3.75;;;;;;;;;;7383424;19;20010;-71
2022/10/28 14:43:41;;;;;;;12.02;3.55;;;;;;;;;;7390262;19;19999;-71
2022/10/28 14:46:15;;;;;;;8.00;2.85;;;;;;;;;;7389288;19;20070;-71
2022/10/28 14:48:52;;;;;;;12.05;3.60;;;;;;;;;;7391321;19;20392;-72
2022/10/28 14:51:21;;;;;;;7.88;3.33;;;;;;;;;;7388955;19;19994;-72
2022/10/28 14:53:48;;;;;;;8.77;4.00;;;;;;;;;;7387630;19;20080;-72
2022/10/28 14:56:19;;;;;;;11.55;3.55;;;;;;;;;;7390739;19;20362;-72
2022/10/28 14:58:44;;;;;;;;;;;;;;;;;;7390688;19;19998;-72
2022/10/28 15:01:19;;;;;;;14.10;3.60;;;;;;;;;;7390927;19;20333;-72